sensor_id;sensor_type;location;lat;lon;timestamp;temperature;humidity
63202;DHT22;49296;48.188;11.566;2023-09-12T00:00:05;23.78;68.38
63202;DHT22;49296;48.188;11.566;2023-09-12T00:02:32;23.77;68.44
63202;DHT22;49296;48.188;11.566;2023-09-12T00:04:58;23.68;68.73
63202;DHT22;49296;48.188;11.566;2023-09-12T00:07:25;23.65;68.64
63202;DHT22;49296;48.188;11.566;2023-09-12T00:09:52;23.61;68.67
63202;DHT22;49296;48.188;11.566;2023-09-12T00:12:22;23.54;68.81
63202;DHT22;49296;48.188;11.566;2023-09-12T00:14:49;23.50;68.92
63202;DHT22;49296;48.188;11.566;2023-09-12T00:17:16;23.46;69.13
63202;DHT22;49296;48.188;11.566;2023-09-12T00:19:43;23.43;69.11
63202;DHT22;49296;48.188;11.566;2023-09-12T00:22:10;23.43;69.02
63202;DHT22;49296;48.188;11.566;2023-09-12T00:24:36;23.42;69.15
63202;DHT22;49296;48.188;11.566;2023-09-12T00:27:04;23.33;69.46
63202;DHT22;49296;48.188;11.566;2023-09-12T00:29:32;23.30;69.60
63202;DHT22;49296;48.188;11.566;2023-09-12T00:31:59;23.24;69.55
63202;DHT22;49296;48.188;11.566;2023-09-12T00:34:26;23.27;69.38
63202;DHT22;49296;48.188;11.566;2023-09-12T00:36:52;23.30;69.21
63202;DHT22;49296;48.188;11.566;2023-09-12T00:39:19;23.34;69.16
63202;DHT22;49296;48.188;11.566;2023-09-12T00:41:46;23.24;69.34
63202;DHT22;49296;48.188;11.566;2023-09-12T00:44:12;23.26;69.35
63202;DHT22;49296;48.188;11.566;2023-09-12T00:46:40;23.26;69.28
63202;DHT22;49296;48.188;11.566;2023-09-12T00:49:08;23.19;69.44
63202;DHT22;49296;48.188;11.566;2023-09-12T00:51:35;23.15;69.67
63202;DHT22;49296;48.188;11.566;2023-09-12T00:54:03;23.08;69.76
63202;DHT22;49296;48.188;11.566;2023-09-12T00:56:30;23.05;69.85
63202;DHT22;49296;48.188;11.566;2023-09-12T00:58:57;22.98;69.94
63202;DHT22;49296;48.188;11.566;2023-09-12T01:01:24;22.92;70.18
63202;DHT22;49296;48.188;11.566;2023-09-12T01:03:52;22.87;70.26
63202;DHT22;49296;48.188;11.566;2023-09-12T01:06:19;22.85;70.43
63202;DHT22;49296;48.188;11.566;2023-09-12T01:08:48;22.81;70.43
63202;DHT22;49296;48.188;11.566;2023-09-12T01:11:14;22.74;70.57
63202;DHT22;49296;48.188;11.566;2023-09-12T01:13:43;22.71;70.59
63202;DHT22;49296;48.188;11.566;2023-09-12T01:16:10;22.68;70.68
63202;DHT22;49296;48.188;11.566;2023-09-12T01:18:36;22.67;70.73
63202;DHT22;49296;48.188;11.566;2023-09-12T01:21:34;22.65;70.79
63202;DHT22;49296;48.188;11.566;2023-09-12T01:24:21;22.63;70.80
63202;DHT22;49296;48.188;11.566;2023-09-12T01:26:58;22.64;70.63
63202;DHT22;49296;48.188;11.566;2023-09-12T01:29:27;22.65;70.44
63202;DHT22;49296;48.188;11.566;2023-09-12T01:31:57;22.56;70.64
63202;DHT22;49296;48.188;11.566;2023-09-12T01:34:24;22.56;70.62
63202;DHT22;49296;48.188;11.566;2023-09-12T01:36:51;22.54;70.59
63202;DHT22;49296;48.188;11.566;2023-09-12T01:39:18;22.53;70.65
63202;DHT22;49296;48.188;11.566;2023-09-12T01:41:46;22.50;70.66
63202;DHT22;49296;48.188;11.566;2023-09-12T01:44:14;22.47;70.67
63202;DHT22;49296;48.188;11.566;2023-09-12T01:46:43;22.47;70.57
63202;DHT22;49296;48.188;11.566;2023-09-12T01:49:10;22.40;70.52
63202;DHT22;49296;48.188;11.566;2023-09-12T01:51:38;22.32;70.57
63202;DHT22;49296;48.188;11.566;2023-09-12T01:54:06;22.28;70.78
63202;DHT22;49296;48.188;11.566;2023-09-12T01:56:33;22.26;70.85
63202;DHT22;49296;48.188;11.566;2023-09-12T01:59:00;22.24;71.02
63202;DHT22;49296;48.188;11.566;2023-09-12T02:01:27;22.19;71.04
63202;DHT22;49296;48.188;11.566;2023-09-12T02:03:55;22.17;71.13
63202;DHT22;49296;48.188;11.566;2023-09-12T02:06:21;22.22;71.08
63202;DHT22;49296;48.188;11.566;2023-09-12T02:08:48;22.22;71.06
63202;DHT22;49296;48.188;11.566;2023-09-12T02:11:15;22.19;71.10
63202;DHT22;49296;48.188;11.566;2023-09-12T02:13:42;22.17;71.06
63202;DHT22;49296;48.188;11.566;2023-09-12T02:16:12;22.15;71.11
63202;DHT22;49296;48.188;11.566;2023-09-12T02:18:38;22.10;71.19
63202;DHT22;49296;48.188;11.566;2023-09-12T02:21:06;22.08;71.27
63202;DHT22;49296;48.188;11.566;2023-09-12T02:23:33;22.09;71.18
63202;DHT22;49296;48.188;11.566;2023-09-12T02:25:59;22.04;71.42
63202;DHT22;49296;48.188;11.566;2023-09-12T02:28:26;21.99;71.41
63202;DHT22;49296;48.188;11.566;2023-09-12T02:30:52;21.98;71.33
63202;DHT22;49296;48.188;11.566;2023-09-12T02:33:19;21.98;71.28
63202;DHT22;49296;48.188;11.566;2023-09-12T02:35:46;21.96;71.13
63202;DHT22;49296;48.188;11.566;2023-09-12T02:38:14;21.99;71.08
63202;DHT22;49296;48.188;11.566;2023-09-12T02:40:41;21.99;71.20
63202;DHT22;49296;48.188;11.566;2023-09-12T02:43:07;21.95;71.10
63202;DHT22;49296;48.188;11.566;2023-09-12T02:45:34;21.87;71.20
63202;DHT22;49296;48.188;11.566;2023-09-12T02:48:01;21.91;71.04
63202;DHT22;49296;48.188;11.566;2023-09-12T02:50:27;21.88;70.99
63202;DHT22;49296;48.188;11.566;2023-09-12T02:52:54;21.88;70.88
63202;DHT22;49296;48.188;11.566;2023-09-12T02:55:22;21.82;70.62
63202;DHT22;49296;48.188;11.566;2023-09-12T02:57:48;21.85;70.65
63202;DHT22;49296;48.188;11.566;2023-09-12T03:00:15;21.85;70.45
63202;DHT22;49296;48.188;11.566;2023-09-12T03:02:41;21.87;70.48
63202;DHT22;49296;48.188;11.566;2023-09-12T03:05:08;21.84;70.67
63202;DHT22;49296;48.188;11.566;2023-09-12T03:07:35;21.73;70.82
63202;DHT22;49296;48.188;11.566;2023-09-12T03:10:01;21.74;70.77
63202;DHT22;49296;48.188;11.566;2023-09-12T03:12:30;21.75;70.51
63202;DHT22;49296;48.188;11.566;2023-09-12T03:14:56;21.74;70.68
63202;DHT22;49296;48.188;11.566;2023-09-12T03:17:23;21.71;70.79
63202;DHT22;49296;48.188;11.566;2023-09-12T03:19:50;21.67;70.84
63202;DHT22;49296;48.188;11.566;2023-09-12T03:22:16;21.67;70.97
63202;DHT22;49296;48.188;11.566;2023-09-12T03:24:43;21.64;71.10
63202;DHT22;49296;48.188;11.566;2023-09-12T03:27:10;21.62;71.15
63202;DHT22;49296;48.188;11.566;2023-09-12T03:29:38;21.55;71.20
63202;DHT22;49296;48.188;11.566;2023-09-12T03:32:05;21.57;71.11
63202;DHT22;49296;48.188;11.566;2023-09-12T03:34:31;21.60;71.11
63202;DHT22;49296;48.188;11.566;2023-09-12T03:36:58;21.55;71.22
63202;DHT22;49296;48.188;11.566;2023-09-12T03:39:24;21.54;71.41
63202;DHT22;49296;48.188;11.566;2023-09-12T03:41:51;21.53;71.44
63202;DHT22;49296;48.188;11.566;2023-09-12T03:44:17;21.53;71.41
63202;DHT22;49296;48.188;11.566;2023-09-12T03:46:46;21.49;71.38
63202;DHT22;49296;48.188;11.566;2023-09-12T03:49:12;21.46;71.52
63202;DHT22;49296;48.188;11.566;2023-09-12T03:51:39;21.44;71.69
63202;DHT22;49296;48.188;11.566;2023-09-12T03:54:06;21.43;71.79
63202;DHT22;49296;48.188;11.566;2023-09-12T03:56:32;21.42;71.82
63202;DHT22;49296;48.188;11.566;2023-09-12T03:58:59;21.43;71.71
63202;DHT22;49296;48.188;11.566;2023-09-12T04:01:26;21.46;71.42
63202;DHT22;49296;48.188;11.566;2023-09-12T04:03:53;21.44;71.45
63202;DHT22;49296;48.188;11.566;2023-09-12T04:06:20;21.42;71.54
63202;DHT22;49296;48.188;11.566;2023-09-12T04:08:47;21.46;71.39
63202;DHT22;49296;48.188;11.566;2023-09-12T04:11:13;21.40;71.35
63202;DHT22;49296;48.188;11.566;2023-09-12T04:13:40;21.39;71.19
63202;DHT22;49296;48.188;11.566;2023-09-12T04:16:06;21.43;70.80
63202;DHT22;49296;48.188;11.566;2023-09-12T04:18:33;21.32;70.61
63202;DHT22;49296;48.188;11.566;2023-09-12T04:21:01;21.39;70.50
63202;DHT22;49296;48.188;11.566;2023-09-12T04:23:28;21.39;70.48
63202;DHT22;49296;48.188;11.566;2023-09-12T04:25:54;21.33;70.46
63202;DHT22;49296;48.188;11.566;2023-09-12T04:28:21;21.32;70.47
63202;DHT22;49296;48.188;11.566;2023-09-12T04:30:48;21.27;70.50
63202;DHT22;49296;48.188;11.566;2023-09-12T04:33:14;21.19;70.64
63202;DHT22;49296;48.188;11.566;2023-09-12T04:35:41;21.26;70.69
63202;DHT22;49296;48.188;11.566;2023-09-12T04:38:09;21.23;70.69
63202;DHT22;49296;48.188;11.566;2023-09-12T04:40:35;21.16;70.71
63202;DHT22;49296;48.188;11.566;2023-09-12T04:43:04;21.06;70.98
63202;DHT22;49296;48.188;11.566;2023-09-12T04:45:33;21.10;70.88
63202;DHT22;49296;48.188;11.566;2023-09-12T04:47:59;21.10;70.84
63202;DHT22;49296;48.188;11.566;2023-09-12T04:50:26;21.15;70.63
63202;DHT22;49296;48.188;11.566;2023-09-12T04:52:52;21.15;70.69
63202;DHT22;49296;48.188;11.566;2023-09-12T04:55:20;21.10;70.73
63202;DHT22;49296;48.188;11.566;2023-09-12T04:57:47;21.05;70.97
63202;DHT22;49296;48.188;11.566;2023-09-12T05:00:14;20.92;70.92
63202;DHT22;49296;48.188;11.566;2023-09-12T05:02:40;20.96;71.18
63202;DHT22;49296;48.188;11.566;2023-09-12T05:05:07;20.98;71.19
63202;DHT22;49296;48.188;11.566;2023-09-12T05:07:34;21.02;71.03
63202;DHT22;49296;48.188;11.566;2023-09-12T05:10:00;21.02;71.20
63202;DHT22;49296;48.188;11.566;2023-09-12T05:12:30;21.00;70.96
63202;DHT22;49296;48.188;11.566;2023-09-12T05:14:56;21.03;70.79
63202;DHT22;49296;48.188;11.566;2023-09-12T05:17:23;21.13;70.71
63202;DHT22;49296;48.188;11.566;2023-09-12T05:19:50;21.06;71.01
63202;DHT22;49296;48.188;11.566;2023-09-12T05:22:16;21.13;70.89
63202;DHT22;49296;48.188;11.566;2023-09-12T05:24:43;21.13;70.80
63202;DHT22;49296;48.188;11.566;2023-09-12T05:27:11;21.12;70.99
63202;DHT22;49296;48.188;11.566;2023-09-12T05:29:39;20.96;71.22
63202;DHT22;49296;48.188;11.566;2023-09-12T05:32:06;21.02;71.20
63202;DHT22;49296;48.188;11.566;2023-09-12T05:34:32;21.03;71.13
63202;DHT22;49296;48.188;11.566;2023-09-12T05:36:59;21.10;71.10
63202;DHT22;49296;48.188;11.566;2023-09-12T05:39:25;21.20;70.97
63202;DHT22;49296;48.188;11.566;2023-09-12T05:41:52;21.18;70.87
63202;DHT22;49296;48.188;11.566;2023-09-12T05:44:18;21.20;70.80
63202;DHT22;49296;48.188;11.566;2023-09-12T05:46:47;21.16;70.86
63202;DHT22;49296;48.188;11.566;2023-09-12T05:49:14;21.18;70.47
63202;DHT22;49296;48.188;11.566;2023-09-12T05:51:41;21.20;70.45
63202;DHT22;49296;48.188;11.566;2023-09-12T05:54:07;21.18;71.11
63202;DHT22;49296;48.188;11.566;2023-09-12T05:56:34;21.20;71.17
63202;DHT22;49296;48.188;11.566;2023-09-12T05:59:00;21.23;70.83
63202;DHT22;49296;48.188;11.566;2023-09-12T06:01:28;21.22;70.94
63202;DHT22;49296;48.188;11.566;2023-09-12T06:03:55;21.27;70.82
63202;DHT22;49296;48.188;11.566;2023-09-12T06:06:22;21.36;70.84
63202;DHT22;49296;48.188;11.566;2023-09-12T06:08:49;21.36;70.76
63202;DHT22;49296;48.188;11.566;2023-09-12T06:11:15;21.39;70.77
63202;DHT22;49296;48.188;11.566;2023-09-12T06:13:42;21.42;70.52
63202;DHT22;49296;48.188;11.566;2023-09-12T06:16:08;21.43;70.56
63202;DHT22;49296;48.188;11.566;2023-09-12T06:18:35;21.39;70.62
63202;DHT22;49296;48.188;11.566;2023-09-12T06:21:03;21.42;70.59
63202;DHT22;49296;48.188;11.566;2023-09-12T06:23:33;21.33;70.73
63202;DHT22;49296;48.188;11.566;2023-09-12T06:26:00;21.33;70.85
63202;DHT22;49296;48.188;11.566;2023-09-12T06:28:28;21.13;70.55
63202;DHT22;49296;48.188;11.566;2023-09-12T06:30:55;21.23;70.54
63202;DHT22;49296;48.188;11.566;2023-09-12T06:33:22;21.18;70.38
63202;DHT22;49296;48.188;11.566;2023-09-12T06:35:49;21.18;70.52
63202;DHT22;49296;48.188;11.566;2023-09-12T06:38:19;20.94;71.16
63202;DHT22;49296;48.188;11.566;2023-09-12T06:40:46;21.09;70.96
63202;DHT22;49296;48.188;11.566;2023-09-12T06:43:13;21.13;70.80
63202;DHT22;49296;48.188;11.566;2023-09-12T06:45:40;21.16;70.93
63202;DHT22;49296;48.188;11.566;2023-09-12T06:48:07;21.22;70.95
63202;DHT22;49296;48.188;11.566;2023-09-12T06:50:34;21.37;70.62
63202;DHT22;49296;48.188;11.566;2023-09-12T06:53:00;21.39;70.74
63202;DHT22;49296;48.188;11.566;2023-09-12T06:55:28;21.37;70.85
63202;DHT22;49296;48.188;11.566;2023-09-12T06:57:56;21.42;70.77
63202;DHT22;49296;48.188;11.566;2023-09-12T07:00:22;21.51;70.36
63202;DHT22;49296;48.188;11.566;2023-09-12T07:02:49;21.55;70.31
63202;DHT22;49296;48.188;11.566;2023-09-12T07:05:16;21.61;70.26
63202;DHT22;49296;48.188;11.566;2023-09-12T07:07:42;21.73;70.21
63202;DHT22;49296;48.188;11.566;2023-09-12T07:10:09;21.78;70.02
63202;DHT22;49296;48.188;11.566;2023-09-12T07:12:38;21.88;70.00
63202;DHT22;49296;48.188;11.566;2023-09-12T07:15:06;21.98;69.80
63202;DHT22;49296;48.188;11.566;2023-09-12T07:17:33;21.92;69.84
63202;DHT22;49296;48.188;11.566;2023-09-12T07:19:59;22.01;69.68
63202;DHT22;49296;48.188;11.566;2023-09-12T07:22:26;22.08;69.61
63202;DHT22;49296;48.188;11.566;2023-09-12T07:24:52;22.13;69.69
63202;DHT22;49296;48.188;11.566;2023-09-12T07:27:19;22.33;69.53
63202;DHT22;49296;48.188;11.566;2023-09-12T07:29:47;22.32;69.28
63202;DHT22;49296;48.188;11.566;2023-09-12T07:32:14;22.33;69.58
63202;DHT22;49296;48.188;11.566;2023-09-12T07:34:40;22.39;69.38
63202;DHT22;49296;48.188;11.566;2023-09-12T07:37:10;22.50;68.92
63202;DHT22;49296;48.188;11.566;2023-09-12T07:39:37;22.65;68.82
63202;DHT22;49296;48.188;11.566;2023-09-12T07:42:04;22.71;68.34
63202;DHT22;49296;48.188;11.566;2023-09-12T07:44:34;22.74;67.86
63202;DHT22;49296;48.188;11.566;2023-09-12T07:47:03;22.72;67.54
63202;DHT22;49296;48.188;11.566;2023-09-12T07:49:30;22.78;67.40
63202;DHT22;49296;48.188;11.566;2023-09-12T07:51:57;22.88;67.55
63202;DHT22;49296;48.188;11.566;2023-09-12T07:54:24;22.92;67.92
63202;DHT22;49296;48.188;11.566;2023-09-12T07:56:51;23.02;67.57
63202;DHT22;49296;48.188;11.566;2023-09-12T07:59:18;23.18;67.31
63202;DHT22;49296;48.188;11.566;2023-09-12T08:01:44;23.24;66.77
63202;DHT22;49296;48.188;11.566;2023-09-12T08:04:12;23.34;66.43
63202;DHT22;49296;48.188;11.566;2023-09-12T08:06:42;23.44;66.30
63202;DHT22;49296;48.188;11.566;2023-09-12T08:09:09;23.60;66.11
63202;DHT22;49296;48.188;11.566;2023-09-12T08:11:37;23.65;66.21
63202;DHT22;49296;48.188;11.566;2023-09-12T08:14:04;23.70;65.42
63202;DHT22;49296;48.188;11.566;2023-09-12T08:16:30;23.72;65.20
63202;DHT22;49296;48.188;11.566;2023-09-12T08:18:57;23.68;65.58
63202;DHT22;49296;48.188;11.566;2023-09-12T08:21:26;23.77;65.25
63202;DHT22;49296;48.188;11.566;2023-09-12T08:23:52;23.86;64.42
63202;DHT22;49296;48.188;11.566;2023-09-12T08:26:19;23.90;64.59
63202;DHT22;49296;48.188;11.566;2023-09-12T08:28:46;24.02;64.79
63202;DHT22;49296;48.188;11.566;2023-09-12T08:31:13;24.02;64.97
63202;DHT22;49296;48.188;11.566;2023-09-12T08:33:39;24.06;64.41
63202;DHT22;49296;48.188;11.566;2023-09-12T08:36:06;24.16;63.84
63202;DHT22;49296;48.188;11.566;2023-09-12T08:38:34;24.22;63.86
63202;DHT22;49296;48.188;11.566;2023-09-12T08:41:00;24.26;63.82
63202;DHT22;49296;48.188;11.566;2023-09-12T08:43:28;24.34;63.91
63202;DHT22;49296;48.188;11.566;2023-09-12T08:45:55;24.43;64.65
63202;DHT22;49296;48.188;11.566;2023-09-12T08:48:23;24.53;63.55
63202;DHT22;49296;48.188;11.566;2023-09-12T08:50:51;24.57;63.45
63202;DHT22;49296;48.188;11.566;2023-09-12T08:53:19;24.71;63.03
63202;DHT22;49296;48.188;11.566;2023-09-12T08:55:49;24.82;62.82
63202;DHT22;49296;48.188;11.566;2023-09-12T08:58:17;24.86;62.60
63202;DHT22;49296;48.188;11.566;2023-09-12T09:00:44;24.91;62.51
63202;DHT22;49296;48.188;11.566;2023-09-12T09:03:11;24.89;62.57
63202;DHT22;49296;48.188;11.566;2023-09-12T09:05:40;24.92;62.07
63202;DHT22;49296;48.188;11.566;2023-09-12T09:08:07;24.99;61.70
63202;DHT22;49296;48.188;11.566;2023-09-12T09:10:35;25.03;61.33
63202;DHT22;49296;48.188;11.566;2023-09-12T09:13:03;25.02;61.88
63202;DHT22;49296;48.188;11.566;2023-09-12T09:15:31;25.06;62.02
63202;DHT22;49296;48.188;11.566;2023-09-12T09:18:01;25.09;63.06
63202;DHT22;49296;48.188;11.566;2023-09-12T09:20:30;25.12;62.62
63202;DHT22;49296;48.188;11.566;2023-09-12T09:22:59;25.16;61.60
63202;DHT22;49296;48.188;11.566;2023-09-12T09:25:26;25.22;62.08
63202;DHT22;49296;48.188;11.566;2023-09-12T09:27:53;25.29;62.28
63202;DHT22;49296;48.188;11.566;2023-09-12T09:30:39;25.26;61.69
63202;DHT22;49296;48.188;11.566;2023-09-12T09:33:06;25.26;62.29
63202;DHT22;49296;48.188;11.566;2023-09-12T09:35:33;25.34;62.08
63202;DHT22;49296;48.188;11.566;2023-09-12T09:38:00;25.33;61.97
63202;DHT22;49296;48.188;11.566;2023-09-12T09:40:28;25.38;60.81
63202;DHT22;49296;48.188;11.566;2023-09-12T09:42:57;25.44;60.84
63202;DHT22;49296;48.188;11.566;2023-09-12T09:45:26;25.47;61.13
63202;DHT22;49296;48.188;11.566;2023-09-12T09:47:56;25.58;60.90
63202;DHT22;49296;48.188;11.566;2023-09-12T09:50:23;25.60;60.63
63202;DHT22;49296;48.188;11.566;2023-09-12T09:52:53;25.70;60.46
63202;DHT22;49296;48.188;11.566;2023-09-12T09:55:20;25.70;58.74
63202;DHT22;49296;48.188;11.566;2023-09-12T09:57:46;25.81;58.10
63202;DHT22;49296;48.188;11.566;2023-09-12T10:00:13;25.80;57.06
63202;DHT22;49296;48.188;11.566;2023-09-12T10:02:43;25.85;56.54
63202;DHT22;49296;48.188;11.566;2023-09-12T10:05:11;25.88;56.21
63202;DHT22;49296;48.188;11.566;2023-09-12T10:07:40;25.93;56.54
63202;DHT22;49296;48.188;11.566;2023-09-12T10:10:08;25.89;57.52
63202;DHT22;49296;48.188;11.566;2023-09-12T10:12:36;25.99;56.99
63202;DHT22;49296;48.188;11.566;2023-09-12T10:15:06;26.08;56.79
63202;DHT22;49296;48.188;11.566;2023-09-12T10:17:36;26.08;56.99
63202;DHT22;49296;48.188;11.566;2023-09-12T10:20:09;26.03;58.34
63202;DHT22;49296;48.188;11.566;2023-09-12T10:22:40;26.08;57.91
63202;DHT22;49296;48.188;11.566;2023-09-12T10:25:11;26.08;57.53
63202;DHT22;49296;48.188;11.566;2023-09-12T10:27:38;26.06;57.78
63202;DHT22;49296;48.188;11.566;2023-09-12T10:30:06;26.12;57.09
63202;DHT22;49296;48.188;11.566;2023-09-12T10:32:33;26.19;55.56
63202;DHT22;49296;48.188;11.566;2023-09-12T10:35:03;26.22;56.22
63202;DHT22;49296;48.188;11.566;2023-09-12T10:37:35;26.26;55.68
63202;DHT22;49296;48.188;11.566;2023-09-12T10:40:02;26.39;54.07
63202;DHT22;49296;48.188;11.566;2023-09-12T10:42:31;26.37;54.01
63202;DHT22;49296;48.188;11.566;2023-09-12T10:44:59;26.36;54.06
63202;DHT22;49296;48.188;11.566;2023-09-12T10:47:29;26.41;54.15
63202;DHT22;49296;48.188;11.566;2023-09-12T10:49:56;26.43;53.90
63202;DHT22;49296;48.188;11.566;2023-09-12T10:52:27;26.48;53.65
63202;DHT22;49296;48.188;11.566;2023-09-12T10:54:55;26.55;54.20
63202;DHT22;49296;48.188;11.566;2023-09-12T10:57:22;26.58;53.47
63202;DHT22;49296;48.188;11.566;2023-09-12T11:00:11;26.62;53.51
63202;DHT22;49296;48.188;11.566;2023-09-12T11:02:38;26.68;53.15
63202;DHT22;49296;48.188;11.566;2023-09-12T11:05:06;26.71;53.15
63202;DHT22;49296;48.188;11.566;2023-09-12T11:07:44;26.77;52.90
63202;DHT22;49296;48.188;11.566;2023-09-12T11:10:21;26.79;52.84
63202;DHT22;49296;48.188;11.566;2023-09-12T11:12:49;26.85;52.76
63202;DHT22;49296;48.188;11.566;2023-09-12T11:15:17;26.89;52.67
63202;DHT22;49296;48.188;11.566;2023-09-12T11:17:44;26.96;51.75
63202;DHT22;49296;48.188;11.566;2023-09-12T11:20:12;27.09;52.06
63202;DHT22;49296;48.188;11.566;2023-09-12T11:22:41;27.24;50.85
63202;DHT22;49296;48.188;11.566;2023-09-12T11:25:18;27.29;50.81
63202;DHT22;49296;48.188;11.566;2023-09-12T11:28:02;27.30;50.21
63202;DHT22;49296;48.188;11.566;2023-09-12T11:30:30;27.34;50.32
63202;DHT22;49296;48.188;11.566;2023-09-12T11:32:57;27.46;49.10
63202;DHT22;49296;48.188;11.566;2023-09-12T11:35:27;27.39;50.07
63202;DHT22;49296;48.188;11.566;2023-09-12T11:37:57;27.34;49.15
63202;DHT22;49296;48.188;11.566;2023-09-12T11:40:26;27.47;50.06
63202;DHT22;49296;48.188;11.566;2023-09-12T11:42:53;27.61;48.48
63202;DHT22;49296;48.188;11.566;2023-09-12T11:45:21;27.66;48.77
63202;DHT22;49296;48.188;11.566;2023-09-12T11:47:48;27.78;49.28
63202;DHT22;49296;48.188;11.566;2023-09-12T11:50:28;27.78;47.26
63202;DHT22;49296;48.188;11.566;2023-09-12T11:53:01;27.71;48.28
63202;DHT22;49296;48.188;11.566;2023-09-12T11:55:31;27.59;48.73
63202;DHT22;49296;48.188;11.566;2023-09-12T11:57:57;27.69;49.61
63202;DHT22;49296;48.188;11.566;2023-09-12T12:00:24;27.78;50.16
63202;DHT22;49296;48.188;11.566;2023-09-12T12:02:52;27.85;49.90
63202;DHT22;49296;48.188;11.566;2023-09-12T12:05:19;27.93;49.43
63202;DHT22;49296;48.188;11.566;2023-09-12T12:07:46;28.08;49.59
63202;DHT22;49296;48.188;11.566;2023-09-12T12:10:16;28.13;50.73
63202;DHT22;49296;48.188;11.566;2023-09-12T12:12:44;28.12;48.08
63202;DHT22;49296;48.188;11.566;2023-09-12T12:15:12;28.23;46.98
63202;DHT22;49296;48.188;11.566;2023-09-12T12:17:40;28.44;46.86
63202;DHT22;49296;48.188;11.566;2023-09-12T12:20:08;28.53;47.64
63202;DHT22;49296;48.188;11.566;2023-09-12T12:22:36;28.58;48.83
63202;DHT22;49296;48.188;11.566;2023-09-12T12:25:06;28.61;47.51
63202;DHT22;49296;48.188;11.566;2023-09-12T12:27:36;28.72;47.10
63202;DHT22;49296;48.188;11.566;2023-09-12T12:30:05;28.83;46.35
63202;DHT22;49296;48.188;11.566;2023-09-12T12:32:32;29.05;46.50
63202;DHT22;49296;48.188;11.566;2023-09-12T12:34:59;29.16;46.55
63202;DHT22;49296;48.188;11.566;2023-09-12T12:37:29;29.26;44.75
63202;DHT22;49296;48.188;11.566;2023-09-12T12:39:57;29.38;44.87
63202;DHT22;49296;48.188;11.566;2023-09-12T12:42:23;29.58;46.15
63202;DHT22;49296;48.188;11.566;2023-09-12T12:44:54;29.68;46.52
63202;DHT22;49296;48.188;11.566;2023-09-12T12:47:21;29.74;45.91
63202;DHT22;49296;48.188;11.566;2023-09-12T12:49:50;29.85;45.32
63202;DHT22;49296;48.188;11.566;2023-09-12T12:52:21;29.99;46.02
63202;DHT22;49296;48.188;11.566;2023-09-12T12:54:48;29.95;43.77
63202;DHT22;49296;48.188;11.566;2023-09-12T12:57:18;30.12;42.89
63202;DHT22;49296;48.188;11.566;2023-09-12T12:59:45;30.33;44.60
63202;DHT22;49296;48.188;11.566;2023-09-12T13:02:14;30.12;45.98
63202;DHT22;49296;48.188;11.566;2023-09-12T13:04:40;30.38;45.50
63202;DHT22;49296;48.188;11.566;2023-09-12T13:07:07;30.67;45.33
63202;DHT22;49296;48.188;11.566;2023-09-12T13:09:34;30.92;45.49
63202;DHT22;49296;48.188;11.566;2023-09-12T13:12:00;31.12;45.86
63202;DHT22;49296;48.188;11.566;2023-09-12T13:14:27;31.22;45.58
63202;DHT22;49296;48.188;11.566;2023-09-12T13:16:56;31.30;44.42
63202;DHT22;49296;48.188;11.566;2023-09-12T13:19:24;31.20;45.24
63202;DHT22;49296;48.188;11.566;2023-09-12T13:21:51;31.34;45.07
63202;DHT22;49296;48.188;11.566;2023-09-12T13:24:18;31.40;45.32
63202;DHT22;49296;48.188;11.566;2023-09-12T13:26:45;31.50;44.46
63202;DHT22;49296;48.188;11.566;2023-09-12T13:29:11;31.68;44.83
63202;DHT22;49296;48.188;11.566;2023-09-12T13:31:38;32.02;44.43
63202;DHT22;49296;48.188;11.566;2023-09-12T13:34:04;32.29;44.25
63202;DHT22;49296;48.188;11.566;2023-09-12T13:36:32;32.41;44.53
63202;DHT22;49296;48.188;11.566;2023-09-12T13:38:59;32.61;43.60
63202;DHT22;49296;48.188;11.566;2023-09-12T13:41:26;32.81;43.45
63202;DHT22;49296;48.188;11.566;2023-09-12T13:43:53;32.58;43.57
63202;DHT22;49296;48.188;11.566;2023-09-12T13:46:19;32.78;42.41
63202;DHT22;49296;48.188;11.566;2023-09-12T13:48:46;32.67;42.45
63202;DHT22;49296;48.188;11.566;2023-09-12T13:51:13;32.74;42.18
63202;DHT22;49296;48.188;11.566;2023-09-12T13:53:41;32.96;42.41
63202;DHT22;49296;48.188;11.566;2023-09-12T13:56:07;33.12;42.69
63202;DHT22;49296;48.188;11.566;2023-09-12T13:58:41;33.26;41.90
63202;DHT22;49296;48.188;11.566;2023-09-12T14:01:07;33.40;41.68
63202;DHT22;49296;48.188;11.566;2023-09-12T14:03:34;33.47;41.31
63202;DHT22;49296;48.188;11.566;2023-09-12T14:06:00;33.54;40.24
63202;DHT22;49296;48.188;11.566;2023-09-12T14:08:27;33.58;40.33
63202;DHT22;49296;48.188;11.566;2023-09-12T14:10:55;33.44;40.64
63202;DHT22;49296;48.188;11.566;2023-09-12T14:13:22;33.40;40.46
63202;DHT22;49296;48.188;11.566;2023-09-12T14:15:48;33.43;40.41
63202;DHT22;49296;48.188;11.566;2023-09-12T14:18:16;33.51;40.49
63202;DHT22;49296;48.188;11.566;2023-09-12T14:20:42;33.06;40.51
63202;DHT22;49296;48.188;11.566;2023-09-12T14:23:09;33.05;40.56
63202;DHT22;49296;48.188;11.566;2023-09-12T14:25:36;33.22;40.19
63202;DHT22;49296;48.188;11.566;2023-09-12T14:28:04;33.09;40.50
63202;DHT22;49296;48.188;11.566;2023-09-12T14:30:31;32.61;40.68
63202;DHT22;49296;48.188;11.566;2023-09-12T14:33:01;32.53;40.76
63202;DHT22;49296;48.188;11.566;2023-09-12T14:35:28;32.43;40.86
63202;DHT22;49296;48.188;11.566;2023-09-12T14:37:55;32.12;41.26
63202;DHT22;49296;48.188;11.566;2023-09-12T14:40:23;31.95;41.51
63202;DHT22;49296;48.188;11.566;2023-09-12T14:42:51;31.65;42.60
63202;DHT22;49296;48.188;11.566;2023-09-12T14:45:19;31.78;42.72
63202;DHT22;49296;48.188;11.566;2023-09-12T14:47:45;31.90;42.91
63202;DHT22;49296;48.188;11.566;2023-09-12T14:50:12;31.89;43.25
63202;DHT22;49296;48.188;11.566;2023-09-12T14:52:39;32.26;42.81
63202;DHT22;49296;48.188;11.566;2023-09-12T14:55:07;32.48;42.61
63202;DHT22;49296;48.188;11.566;2023-09-12T14:57:35;32.70;42.14
63202;DHT22;49296;48.188;11.566;2023-09-12T15:00:02;32.70;42.23
63202;DHT22;49296;48.188;11.566;2023-09-12T15:02:30;32.76;42.25
63202;DHT22;49296;48.188;11.566;2023-09-12T15:05:00;32.89;42.28
63202;DHT22;49296;48.188;11.566;2023-09-12T15:07:28;32.76;42.61
63202;DHT22;49296;48.188;11.566;2023-09-12T15:09:56;32.79;42.23
63202;DHT22;49296;48.188;11.566;2023-09-12T15:12:22;32.65;42.39
63202;DHT22;49296;48.188;11.566;2023-09-12T15:14:49;32.63;42.59
63202;DHT22;49296;48.188;11.566;2023-09-12T15:17:22;32.95;41.94